Terminal Aerodrome Forecast
Issued by NWS

Home | Current Version | Previous Version | Text Only | Print | Product List | Glossary On
Versions: 1 2 3 4 5 6 7 8 9 10 11 12 13 14 15 16 17 18 19
000
FTAK31 PAJN 171730
TAFASI
TAF
PASI 171730Z 1718/1818 12008KT 6SM -SHRA SCT025 BKN040 OVC060
      TEMPO 1718/1721 18008KT 3SM SHRA FEW008 BKN015 OVC025
     FM172100 19010G15KT 4SM -SHRA BR VCTS SCT012 OVC025CB
     FM180600 20012G20KT 6SM -SHRA BKN025 OVC040=

USA.gov is the U.S. government's official web portal to all federal, state and local government web resources and services.